createdAt,value
2018-11-26T00:00:29.124Z,56.87
2018-11-26T00:03:16.566Z,51.17
2018-11-26T00:08:51.363Z,56.77
2018-11-26T00:11:44.381Z,53.37
2018-11-26T00:14:31.816Z,55.20
2018-11-26T00:17:13.350Z,53.00
2018-11-26T00:19:56.044Z,65.17
2018-11-26T00:22:46.814Z,60.73
2018-11-26T00:37:21.750Z,66.13
2018-11-26T00:43:12.394Z,69.17
2018-11-26T00:45:48.734Z,67.73
2018-11-26T00:48:34.574Z,71.03
2018-11-26T00:51:17.112Z,69.80
2018-11-26T00:53:57.265Z,71.83
2018-11-26T00:56:32.800Z,114.40
2018-11-26T00:59:08.503Z,82.07
2018-11-26T01:01:42.709Z,68.57
2018-11-26T01:04:16.531Z,84.23
2018-11-26T01:06:49.697Z,68.40
2018-11-26T01:09:24.504Z,71.17
2018-11-26T01:11:57.623Z,77.37
2018-11-26T01:17:58.516Z,88.47
2018-11-26T01:20:33.277Z,85.73
2018-11-26T01:23:13.277Z,97.67
2018-11-26T01:25:48.368Z,132.27
2018-11-26T01:28:26.956Z,88.80
2018-11-26T01:34:03.275Z,90.90
2018-11-26T01:36:35.682Z,81.63
2018-11-26T01:39:12.923Z,89.50
2018-11-26T01:41:46.908Z,87.97
2018-11-26T01:44:27.331Z,107.87
2018-11-26T01:47:00.564Z,122.47
2018-11-26T01:49:36.508Z,79.47
2018-11-26T01:55:12.181Z,82.30
2018-11-26T01:57:52.120Z,103.70
2018-11-26T02:00:35.233Z,105.53
2018-11-26T02:03:13.676Z,115.37
2018-11-26T02:08:30.526Z,96.47
2018-11-26T02:11:04.178Z,97.30
2018-11-26T02:13:38.422Z,95.10
2018-11-26T02:16:11.949Z,88.27
2018-11-26T02:18:46.541Z,104.50
2018-11-26T02:21:21.137Z,118.10
2018-11-26T02:23:53.923Z,95.60
2018-11-26T02:26:27.977Z,90.23
2018-11-26T02:29:01.204Z,101.77
2018-11-26T02:31:39.415Z,98.47
2018-11-26T02:37:35.196Z,207.40
2018-11-26T02:40:09.003Z,88.23
2018-11-26T02:42:42.485Z,90.07
2018-11-26T02:45:14.974Z,100.07
2018-11-26T02:47:48.471Z,93.23
2018-11-26T02:50:21.011Z,99.70
2018-11-26T02:52:54.238Z,103.53
2018-11-26T02:55:27.394Z,117.37
2018-11-26T02:58:00.759Z,112.57
2018-11-26T03:00:33.856Z,115.37
2018-11-26T03:03:06.988Z,179.73
2018-11-26T03:05:39.419Z,117.20
2018-11-26T03:08:12.979Z,128.00
2018-11-26T03:10:45.754Z,124.87
2018-11-26T03:13:28.157Z,136.57
2018-11-26T03:16:00.632Z,133.13
2018-11-26T03:18:33.816Z,137.33
2018-11-26T03:21:06.835Z,149.03
2018-11-26T03:23:41.028Z,125.57
2018-11-26T03:26:13.512Z,134.40
2018-11-26T03:32:08.572Z,133.73
2018-11-26T03:34:41.101Z,119.63
2018-11-26T03:37:17.920Z,134.93
2018-11-26T03:39:50.561Z,112.00
2018-11-26T03:42:23.869Z,104.80
2018-11-26T03:44:56.371Z,109.10
2018-11-26T03:47:35.754Z,90.83
2018-11-26T03:50:21.543Z,86.20
2018-11-26T03:53:09.641Z,102.60
2018-11-26T03:55:43.427Z,96.30
2018-11-26T03:58:18.902Z,102.60
2018-11-26T04:01:00.384Z,112.40
2018-11-26T04:03:36.016Z,104.60
2018-11-26T04:06:26.443Z,106.43
2018-11-26T04:12:19.635Z,112.43
2018-11-26T04:14:57.886Z,109.43
2018-11-26T04:17:43.505Z,109.80
2018-11-26T04:20:17.424Z,175.73
2018-11-26T04:22:51.156Z,101.07
2018-11-26T04:25:23.770Z,119.87
2018-11-26T04:27:56.259Z,134.37
2018-11-26T04:34:00.957Z,108.00
2018-11-26T04:36:35.408Z,109.83
2018-11-26T04:39:09.248Z,108.13
2018-11-26T04:41:41.640Z,112.13
2018-11-26T04:44:14.069Z,108.37
2018-11-26T04:46:46.412Z,115.00
2018-11-26T04:49:23.888Z,122.63
2018-11-26T04:51:56.216Z,117.07
2018-11-26T04:54:28.653Z,101.57
2018-11-26T04:57:22.602Z,103.53
2018-11-26T05:00:13.004Z,100.13
2018-11-26T05:02:45.824Z,97.93
2018-11-26T05:05:18.470Z,106.73
2018-11-26T05:07:51.557Z,114.47
2018-11-26T05:10:24.358Z,124.70
2018-11-26T05:12:56.843Z,130.63
2018-11-26T05:15:29.424Z,125.47
2018-11-26T05:18:01.860Z,134.50
2018-11-26T05:20:34.205Z,167.63
2018-11-26T05:23:06.623Z,163.83
2018-11-26T05:25:39.207Z,136.03
2018-11-26T05:28:12.213Z,175.67
2018-11-26T05:30:45.612Z,146.60
2018-11-26T05:33:18.326Z,128.17
2018-11-26T05:35:52.594Z,124.83
2018-11-26T05:38:25.021Z,127.90
2018-11-26T05:40:57.542Z,144.80
2018-11-26T05:43:30.849Z,133.43
2018-11-26T05:46:04.254Z,141.77
2018-11-26T05:52:08.007Z,119.43
2018-11-26T05:54:41.355Z,116.87
2018-11-26T05:57:14.646Z,107.47
2018-11-26T05:59:47.255Z,107.87
2018-11-26T06:02:23.556Z,113.83
2018-11-26T06:04:56.039Z,125.50
2018-11-26T06:07:28.457Z,122.50
2018-11-26T06:10:00.675Z,119.53
2018-11-26T06:12:32.942Z,169.63
2018-11-26T06:15:05.193Z,150.87
2018-11-26T06:17:37.510Z,116.83
2018-11-26T06:20:11.167Z,122.80
2018-11-26T06:22:44.361Z,129.70
2018-11-26T06:25:18.201Z,113.17
2018-11-26T06:27:50.575Z,110.90
2018-11-26T06:30:23.439Z,109.50
2018-11-26T06:32:55.733Z,97.80
2018-11-26T06:35:28.126Z,99.23
2018-11-26T06:38:00.808Z,111.00
2018-11-26T06:40:33.030Z,110.77
2018-11-26T06:43:05.240Z,106.70
2018-11-26T06:45:37.671Z,114.33
2018-11-26T06:48:10.122Z,112.43
2018-11-26T06:50:43.048Z,115.90
2018-11-26T06:53:15.378Z,105.43
2018-11-26T06:55:47.606Z,114.87
2018-11-26T06:58:19.913Z,126.00
2018-11-26T07:00:52.804Z,121.07
2018-11-26T07:03:25.079Z,107.93
2018-11-26T07:05:57.562Z,113.10
2018-11-26T07:08:30.649Z,110.50
2018-11-26T07:11:03.101Z,111.73
2018-11-26T07:13:35.349Z,105.43
2018-11-26T07:16:10.234Z,105.57
2018-11-26T07:18:42.650Z,107.83
2018-11-26T07:21:15.406Z,107.83
2018-11-26T07:23:49.941Z,113.83
2018-11-26T07:26:23.060Z,111.70
2018-11-26T07:28:55.335Z,112.77
2018-11-26T07:31:27.676Z,130.37
2018-11-26T07:37:31.782Z,117.67
2018-11-26T07:40:05.128Z,110.20
2018-11-26T07:42:37.955Z,100.37
2018-11-26T07:45:13.644Z,90.30
2018-11-26T07:47:46.472Z,197.40
2018-11-26T07:50:20.244Z,106.27
2018-11-26T07:52:53.910Z,104.87
2018-11-26T07:55:26.774Z,125.57
2018-11-26T07:58:00.292Z,98.43
2018-11-26T08:00:33.207Z,94.37
2018-11-26T08:03:06.190Z,104.07
2018-11-26T08:05:39.076Z,125.77
2018-11-26T08:08:14.828Z,131.47
2018-11-26T08:11:34.173Z,120.03
2018-11-26T08:14:06.624Z,110.63
2018-11-26T08:16:38.973Z,104.90
2018-11-26T08:19:11.301Z,113.80
2018-11-26T08:21:43.645Z,112.80
2018-11-26T08:24:15.977Z,117.97
2018-11-26T08:26:48.478Z,133.53
2018-11-26T08:29:21.082Z,155.50
2018-11-26T08:31:53.435Z,153.23
2018-11-26T08:34:25.778Z,145.97
2018-11-26T08:37:02.491Z,141.40
2018-11-26T08:39:38.196Z,183.73
2018-11-26T08:42:15.014Z,152.70
2018-11-26T08:44:48.188Z,188.70
2018-11-26T08:50:42.459Z,161.30
2018-11-26T08:53:14.954Z,163.93
2018-11-26T08:55:47.508Z,167.20
2018-11-26T08:58:20.023Z,171.50
2018-11-26T09:00:56.710Z,174.50
2018-11-26T09:03:33.531Z,192.03
2018-11-26T09:06:06.719Z,193.53
2018-11-26T09:08:40.023Z,179.90
2018-11-26T09:14:33.694Z,171.07
2018-11-26T09:17:05.862Z,166.53
2018-11-26T09:19:38.643Z,156.50
2018-11-26T09:22:10.856Z,160.93
2018-11-26T09:24:43.003Z,164.33
2018-11-26T09:27:15.153Z,168.97
2018-11-26T09:29:47.391Z,182.37
2018-11-26T09:32:19.512Z,173.47
2018-11-26T09:34:51.711Z,181.70
2018-11-26T09:40:55.220Z,190.10
2018-11-26T09:43:27.859Z,187.60
2018-11-26T09:46:00.187Z,205.80
2018-11-26T09:48:32.559Z,202.23
2018-11-26T09:51:05.496Z,202.63
2018-11-26T09:53:37.741Z,192.87
2018-11-26T09:56:10.960Z,209.40
2018-11-26T09:58:44.126Z,198.63
2018-11-26T10:04:39.001Z,190.27
2018-11-26T10:07:11.321Z,197.20
2018-11-26T10:09:43.694Z,180.80
2018-11-26T10:12:16.097Z,207.93
2018-11-26T10:14:48.494Z,194.83
2018-11-26T10:17:20.825Z,182.33
2018-11-26T10:19:53.159Z,162.60
2018-11-26T10:22:26.402Z,158.23
2018-11-26T10:25:05.629Z,154.00
2018-11-26T10:27:31.559Z,159.17
2018-11-26T10:30:03.900Z,154.87
2018-11-26T10:32:36.272Z,154.33
2018-11-26T10:35:09.308Z,143.27
2018-11-26T10:37:41.694Z,145.73
2018-11-26T10:40:18.876Z,156.17
2018-11-26T10:42:51.209Z,161.77
2018-11-26T10:45:24.714Z,170.13
2018-11-26T10:47:57.052Z,165.10
2018-11-26T10:50:30.440Z,146.07
2018-11-26T10:53:03.231Z,154.13
2018-11-26T10:55:37.746Z,165.50
2018-11-26T10:58:10.332Z,148.73
2018-11-26T11:00:46.354Z,147.80
2018-11-26T11:03:18.750Z,145.13
2018-11-26T11:05:51.110Z,171.13
2018-11-26T11:08:23.844Z,182.03
2018-11-26T11:10:56.039Z,171.97
2018-11-26T11:13:28.417Z,184.33
2018-11-26T11:16:00.934Z,172.90
2018-11-26T11:18:33.268Z,191.27
2018-11-26T11:21:06.414Z,174.63
2018-11-26T11:23:38.992Z,189.63
2018-11-26T11:29:32.776Z,204.73
2018-11-26T11:32:05.653Z,191.77
2018-11-26T11:34:38.546Z,178.70
2018-11-26T11:37:12.241Z,162.00
2018-11-26T11:39:47.957Z,164.83
2018-11-26T11:42:26.315Z,188.80
2018-11-26T11:45:01.709Z,169.60
2018-11-26T11:47:35.453Z,196.63
2018-11-26T11:50:10.037Z,195.60
2018-11-26T11:52:46.201Z,182.27
2018-11-26T11:55:23.204Z,198.20
2018-11-26T11:57:58.648Z,212.87
2018-11-26T12:00:50.053Z,207.53
2018-11-26T12:06:36.723Z,258.20
2018-11-26T12:09:12.578Z,270.10
2018-11-26T12:11:45.568Z,285.17
2018-11-26T12:14:18.439Z,262.47
2018-11-26T12:16:56.567Z,272.80
2018-11-26T12:19:29.572Z,265.60
2018-11-26T12:22:02.922Z,248.27
2018-11-26T12:24:37.022Z,273.73
2018-11-26T12:27:11.175Z,262.27
2018-11-26T12:29:43.892Z,271.40
2018-11-26T12:32:16.725Z,260.00
2018-11-26T12:34:53.709Z,259.00
2018-11-26T12:40:38.835Z,248.73
2018-11-26T12:43:16.347Z,189.20
2018-11-26T12:45:49.323Z,118.20
2018-11-26T12:48:23.566Z,79.53
2018-11-26T12:50:58.830Z,70.43
2018-11-26T12:53:31.621Z,62.77
2018-11-26T12:56:04.406Z,64.27
2018-11-26T12:58:37.206Z,65.03
2018-11-26T13:01:14.687Z,67.43
2018-11-26T13:03:50.080Z,66.07
2018-11-26T13:06:24.602Z,66.17
2018-11-26T13:09:00.377Z,60.47
2018-11-26T13:11:34.270Z,61.93
2018-11-26T13:14:07.260Z,47.10
2018-11-26T13:16:43.479Z,51.47
2018-11-26T13:19:19.390Z,52.33
2018-11-26T13:21:52.290Z,54.30
2018-11-26T13:24:26.140Z,46.07
2018-11-26T13:26:58.912Z,47.10
2018-11-26T13:32:55.469Z,53.43
2018-11-26T13:35:27.785Z,47.40
2018-11-26T13:38:00.129Z,40.27
2018-11-26T13:40:38.533Z,45.43
2018-11-26T13:43:14.006Z,39.73
2018-11-26T13:52:33.847Z,35.10
2018-11-26T13:55:06.557Z,27.90
2018-11-26T13:57:40.504Z,39.60
2018-11-26T14:03:44.579Z,34.30
2018-11-26T14:06:17.830Z,33.87
2018-11-26T14:08:50.814Z,38.30
2018-11-26T14:11:24.684Z,37.87
2018-11-26T14:13:57.800Z,47.13
2018-11-26T14:16:30.899Z,38.70
2018-11-26T14:19:06.359Z,38.97
2018-11-26T14:21:41.988Z,34.63
2018-11-26T14:24:15.465Z,35.07
2018-11-26T14:26:49.450Z,34.53
2018-11-26T14:29:22.420Z,34.00
2018-11-26T14:31:55.482Z,32.03
2018-11-26T14:34:28.286Z,36.63
2018-11-26T14:37:01.529Z,26.10
2018-11-26T14:39:34.592Z,28.07
2018-11-26T14:42:07.720Z,33.18
2018-11-26T14:44:40.860Z,31.47
2018-11-26T14:47:14.900Z,28.63
2018-11-26T14:49:49.601Z,26.47
2018-11-26T14:52:23.798Z,21.77
2018-11-26T14:54:56.870Z,17.10
2018-11-26T14:57:30.754Z,16.77
2018-11-26T15:00:04.412Z,26.23
2018-11-26T15:02:37.299Z,36.33
2018-11-26T15:05:12.228Z,32.85
2018-11-26T15:07:45.260Z,36.77
2018-11-26T15:10:21.244Z,37.17
2018-11-26T15:12:54.647Z,27.55
2018-11-26T15:15:30.671Z,23.00
2018-11-26T15:18:06.013Z,20.90
2018-11-26T15:20:38.955Z,22.73
2018-11-26T15:23:12.977Z,21.02
2018-11-26T15:25:45.991Z,19.90
2018-11-26T15:28:19.328Z,28.50
2018-11-26T15:30:55.635Z,37.58
2018-11-26T15:33:29.704Z,35.38
2018-11-26T15:36:02.701Z,30.90
2018-11-26T15:38:35.756Z,31.93
2018-11-26T15:41:08.779Z,31.12
2018-11-26T15:43:47.757Z,29.05
2018-11-26T15:46:20.906Z,24.50
2018-11-26T15:48:54.278Z,23.07
2018-11-26T15:51:27.124Z,14.93
2018-11-26T15:54:00.555Z,16.45
2018-11-26T15:56:35.194Z,15.85
2018-11-26T15:59:09.223Z,12.40
2018-11-26T16:01:42.258Z,13.75
2018-11-26T16:04:23.108Z,19.62
2018-11-26T16:06:56.658Z,6.58
2018-11-26T16:12:16.938Z,14.13
2018-11-26T16:14:50.075Z,10.15
2018-11-26T16:17:26.185Z,11.53
2018-11-26T16:20:00.717Z,10.38
2018-11-26T16:22:35.810Z,10.25
2018-11-26T16:25:25.482Z,13.60
2018-11-26T16:28:02.354Z,11.18
2018-11-26T16:30:55.619Z,10.63
2018-11-26T16:33:30.411Z,16.07
2018-11-26T16:36:06.983Z,11.03
2018-11-26T16:38:40.296Z,18.30
2018-11-26T16:41:13.986Z,9.85
2018-11-26T16:43:47.107Z,11.10
2018-11-26T16:46:20.459Z,16.42
2018-11-26T16:48:53.304Z,10.75
2018-11-26T16:51:26.650Z,12.00
2018-11-26T16:54:01.981Z,14.93
2018-11-26T16:56:38.769Z,10.18
2018-11-26T16:59:11.673Z,10.60
2018-11-26T17:05:15.545Z,8.85
2018-11-26T17:07:53.343Z,11.25
2018-11-26T17:13:47.782Z,11.03
2018-11-26T17:16:20.223Z,11.15
2018-11-26T17:19:01.040Z,8.55
2018-11-26T17:21:46.805Z,9.30
2018-11-26T17:24:21.537Z,8.83
2018-11-26T17:26:54.417Z,13.50
2018-11-26T17:29:51.973Z,13.10
2018-11-26T17:32:52.432Z,10.05
2018-11-26T17:56:45.993Z,10.20
2018-11-26T17:59:28.886Z,16.50
2018-11-26T18:02:23.047Z,9.35
2018-11-26T18:05:00.372Z,7.40
2018-11-26T18:07:42.118Z,9.33
2018-11-26T18:10:36.985Z,8.33
2018-11-26T18:13:13.886Z,8.55
2018-11-26T18:18:41.431Z,10.45
2018-11-26T18:21:26.806Z,10.68
2018-11-26T18:24:00.853Z,7.35
2018-11-26T18:26:37.814Z,8.80
2018-11-26T18:29:15.690Z,12.50
2018-11-26T18:31:55.937Z,7.28
2018-11-26T18:34:28.972Z,8.73
2018-11-26T18:37:12.644Z,7.53
2018-11-26T18:39:47.606Z,9.58
2018-11-26T18:42:20.657Z,7.75
2018-11-26T18:44:53.459Z,11.22
2018-11-26T18:47:27.678Z,8.70
2018-11-26T18:50:00.683Z,10.10
2018-11-26T18:52:36.603Z,8.80
2018-11-26T18:55:11.823Z,9.60
2018-11-26T18:57:44.582Z,9.28
2018-11-26T19:00:20.259Z,8.63
2018-11-26T19:02:54.807Z,10.00
2018-11-26T19:05:57.559Z,7.55
2018-11-26T19:08:32.915Z,11.03
2018-11-26T19:11:10.888Z,8.93
2018-11-26T19:13:54.571Z,9.53
2018-11-26T19:16:33.697Z,7.30
2018-11-26T19:19:08.792Z,7.17
2018-11-26T19:21:43.020Z,8.28
2018-11-26T19:24:21.256Z,10.53
2018-11-26T19:26:59.107Z,7.80
2018-11-26T19:29:40.068Z,11.80
2018-11-26T19:32:12.523Z,7.30
2018-11-26T19:34:45.959Z,7.87
2018-11-26T19:37:18.403Z,10.30
2018-11-26T19:39:55.298Z,11.57
2018-11-26T19:42:28.476Z,9.28
2018-11-26T19:45:02.732Z,12.20
2018-11-26T19:47:36.160Z,7.90
2018-11-26T19:50:13.436Z,7.87
2018-11-26T19:52:46.828Z,11.33
2018-11-26T19:55:21.185Z,8.75
2018-11-26T19:57:57.114Z,12.20
2018-11-26T20:00:35.681Z,12.25
2018-11-26T20:03:22.030Z,14.15
2018-11-26T20:06:14.857Z,11.90
2018-11-26T20:08:55.844Z,7.97
2018-11-26T20:11:33.511Z,12.10
2018-11-26T20:14:21.296Z,11.12
2018-11-26T20:16:56.778Z,7.45
2018-11-26T20:19:35.535Z,8.98
2018-11-26T20:22:20.061Z,6.83
2018-11-26T20:25:07.141Z,8.93
2018-11-26T20:27:58.087Z,9.43
2018-11-26T20:30:31.071Z,9.50
2018-11-26T20:33:04.950Z,12.15
2018-11-26T20:35:38.030Z,9.63
2018-11-26T20:38:12.704Z,11.90
2018-11-26T20:40:46.893Z,9.45
2018-11-26T20:46:42.118Z,10.95
2018-11-26T20:49:14.778Z,7.42
2018-11-26T20:51:48.041Z,10.80
2018-11-26T20:54:21.615Z,4.75
2018-11-26T20:56:54.230Z,6.92
2018-11-26T20:59:26.928Z,5.42
2018-11-26T21:02:47.878Z,6.20
2018-11-26T21:05:43.511Z,8.13
2018-11-26T21:08:24.375Z,10.58
2018-11-26T21:12:10.554Z,10.10
2018-11-26T21:14:55.878Z,9.70
2018-11-26T21:17:49.903Z,12.28
2018-11-26T21:23:57.007Z,12.98
2018-11-26T21:26:32.054Z,14.30
2018-11-26T21:29:19.297Z,8.38
2018-11-26T21:31:55.282Z,9.43
2018-11-26T21:34:31.769Z,10.80
2018-11-26T21:37:07.811Z,11.25
2018-11-26T21:39:42.200Z,13.30
2018-11-26T21:42:16.981Z,16.63
2018-11-26T21:44:51.943Z,11.95
2018-11-26T21:47:29.552Z,14.98
2018-11-26T21:50:04.839Z,13.62
2018-11-26T21:52:38.138Z,13.37
2018-11-26T21:55:19.517Z,13.45
2018-11-26T21:57:59.086Z,14.27
2018-11-26T22:00:45.480Z,10.83
2018-11-26T22:03:18.909Z,11.60
2018-11-26T22:05:53.349Z,11.33
2018-11-26T22:08:29.898Z,8.83
2018-11-26T22:11:05.221Z,12.05
2018-11-26T22:13:42.750Z,16.07
2018-11-26T22:16:22.154Z,18.63
2018-11-26T22:19:07.171Z,9.95
2018-11-26T22:21:41.951Z,27.63
2018-11-26T22:24:19.934Z,15.70
2018-11-26T22:27:04.023Z,49.80
2018-11-26T22:32:34.473Z,47.93
2018-11-26T22:35:16.525Z,51.37
2018-11-26T22:38:25.284Z,35.53
2018-11-26T22:40:58.859Z,15.57
2018-11-26T22:43:31.423Z,13.47
2018-11-26T22:46:08.336Z,21.17
2018-11-26T22:48:44.897Z,20.08
2018-11-26T22:51:19.092Z,14.37
2018-11-26T22:53:53.420Z,15.50
2018-11-26T22:59:49.532Z,16.00
2018-11-26T23:02:30.780Z,12.27
2018-11-26T23:05:11.694Z,22.63
2018-11-26T23:07:57.283Z,14.47
2018-11-26T23:10:45.479Z,18.00
2018-11-26T23:13:36.236Z,14.10
2018-11-26T23:16:24.146Z,13.87
2018-11-26T23:19:12.825Z,9.97
2018-11-26T23:38:37.892Z,13.70
2018-11-26T23:41:14.560Z,16.53
2018-11-26T23:43:59.554Z,12.77
2018-11-26T23:47:38.463Z,12.03
2018-11-26T23:53:13.875Z,13.73
2018-11-26T23:55:50.293Z,10.50
2018-11-26T23:58:25.587Z,12.63
